Time;durP1;ratioP1;P1;durP2;ratioP2;P2;SDS_P1;SDS_P2;PMS_P1;PMS_P2;Temp;Humidity;BMP_temperature;BMP_pressure;BME280_temperature;BME280_humidity;BME280_pressure;Samples;Min_cycle;Max_cycle;Signal;HPM_P1;HPM_P2
2023/01/08 00:01:08;;;;;;;9.53;8.27;;;8.60;1.00;;;;;;5113008;27;20848;-81
2023/01/08 00:03:37;;;;;;;6.80;6.10;;;8.60;99.90;;;;;;5095951;27;20517;-80
2023/01/08 00:06:07;;;;;;;5.43;4.80;;;8.60;99.90;;;;;;5120927;27;20597;-81
2023/01/08 00:08:35;;;;;;;6.23;5.80;;;8.60;99.90;;;;;;5117288;27;20466;-80
2023/01/08 00:11:08;;;;;;;6.00;5.30;;;8.50;71.50;;;;;;5113622;27;20443;-80
2023/01/08 00:13:36;;;;;;;6.70;5.13;;;8.60;99.90;;;;;;5114003;27;20698;-79
2023/01/08 00:16:06;;;;;;;6.30;5.70;;;8.60;99.90;;;;;;5117158;27;20471;-81
2023/01/08 00:18:36;;;;;;;6.30;5.70;;;8.60;99.90;;;;;;5101255;27;20466;-79
2023/01/08 00:21:06;;;;;;;5.73;5.23;;;8.60;99.90;;;;;;5113512;27;20451;-79
2023/01/08 00:23:34;;;;;;;7.20;6.60;;;8.50;99.90;;;;;;5079176;27;20986;-80
2023/01/08 00:26:03;;;;;;;6.57;5.93;;;8.50;99.90;;;;;;5115524;27;20512;-79
2023/01/08 00:28:33;;;;;;;6.20;5.60;;;8.50;99.90;;;;;;5117424;27;20447;-79
2023/01/08 00:31:03;;;;;;;6.30;5.70;;;8.50;99.90;;;;;;5118043;27;20456;-80
2023/01/08 00:33:32;;;;;;;6.60;5.83;;;8.60;99.90;;;;;;5114273;27;20479;-80
2023/01/08 00:36:01;;;;;;;6.50;5.80;;;8.60;52.80;;;;;;5114304;27;21013;-80
2023/01/08 00:38:29;;;;;;;7.80;6.57;;;8.60;53.30;;;;;;5112549;27;20513;-80
2023/01/08 00:40:57;;;;;;;6.33;5.77;;;8.50;99.90;;;;;;5111719;27;21322;-81
2023/01/08 00:43:26;;;;;;;6.50;5.50;;;8.60;1.00;;;;;;5112668;27;20538;-80
2023/01/08 00:45:55;;;;;;;6.23;5.73;;;8.50;27.60;;;;;;5112510;27;21128;-80
2023/01/08 00:48:24;;;;;;;5.97;5.47;;;8.50;34.40;;;;;;5113719;27;20473;-80
2023/01/08 00:50:53;;;;;;;5.50;5.00;;;8.50;1.00;;;;;;5114033;27;20477;-80
2023/01/08 00:53:22;;;;;;;6.00;5.40;;;8.50;1.00;;;;;;5111679;27;20469;-80
2023/01/08 00:55:50;;;;;;;6.03;5.50;;;8.50;1.00;;;;;;5112307;27;20473;-80
2023/01/08 00:58:19;;;;;;;5.80;5.30;;;8.60;1.00;;;;;;5111766;27;21001;-80
2023/01/08 01:00:47;;;;;;;5.37;4.97;;;8.70;1.00;;;;;;5112148;27;20910;-80
2023/01/08 01:03:16;;;;;;;6.47;5.83;;;8.60;1.00;;;;;;5115250;27;20489;-79
2023/01/08 01:05:44;;;;;;;6.80;6.10;;;8.60;1.00;;;;;;5112227;27;20465;-80
2023/01/08 01:08:12;;;;;;;5.97;5.37;;;8.60;1.00;;;;;;5114916;27;20445;-79
2023/01/08 01:10:40;;;;;;;5.87;5.23;;;8.70;1.00;;;;;;5115750;28;20445;-81
2023/01/08 01:13:08;;;;;;;5.20;4.80;;;8.50;1.00;;;;;;5114021;28;20498;-80
2023/01/08 01:15:36;;;;;;;5.87;5.37;;;8.50;1.00;;;;;;5114206;28;20535;-79
2023/01/08 01:18:05;;;;;;;5.77;5.27;;;8.50;1.00;;;;;;5116824;28;20513;-80
2023/01/08 01:20:34;;;;;;;5.73;5.23;;;8.40;99.90;;;;;;5106722;28;21148;-77
2023/01/08 01:23:04;;;;;;;5.40;4.97;;;8.40;46.40;;;;;;5112867;28;20458;-79
2023/01/08 01:25:36;;;;;;;5.40;4.90;;;8.40;99.90;;;;;;5112517;28;20506;-79
2023/01/08 01:28:05;;;;;;;5.83;5.23;;;8.40;70.10;;;;;;5093605;28;20453;-79
2023/01/08 01:30:33;;;;;;;5.30;4.90;;;8.40;1.00;;;;;;5113320;28;20515;-80
2023/01/08 01:33:01;;;;;;;5.33;4.83;;;8.40;39.20;;;;;;5113189;28;20484;-77
2023/01/08 01:35:29;;;;;;;6.33;5.77;;;8.50;1.00;;;;;;5113354;28;20550;-77
2023/01/08 01:37:59;;;;;;;5.40;4.90;;;8.50;1.00;;;;;;5111402;28;20938;-78
2023/01/08 01:40:27;;;;;;;5.50;5.00;;;8.50;1.00;;;;;;5110347;28;21171;-78
2023/01/08 01:42:55;;;;;;;5.90;5.40;;;8.50;1.00;;;;;;5110012;28;20470;-79
2023/01/08 01:45:26;;;;;;;6.93;5.80;;;8.50;1.00;;;;;;5104738;28;20564;-79
2023/01/08 01:47:57;;;;;;;5.13;4.60;;;8.50;1.00;;;;;;5109350;27;20904;-79
2023/01/08 01:50:29;;;;;;;5.43;4.97;;;8.60;1.00;;;;;;5112447;27;20489;-78
2023/01/08 01:53:03;;;;;;;4.83;4.43;;;8.50;1.00;;;;;;5115938;27;21258;-78
2023/01/08 01:55:32;;;;;;;6.73;6.03;;;8.60;1.00;;;;;;5119124;27;20473;-80
2023/01/08 01:58:04;;;;;;;5.37;4.93;;;8.60;1.00;;;;;;5115782;27;20522;-79
2023/01/08 02:00:33;;;;;;;6.70;5.50;;;8.60;1.00;;;;;;5082125;27;20470;-80
2023/01/08 02:03:02;;;;;;;5.93;5.20;;;8.60;1.00;;;;;;5111935;27;20547;-79
2023/01/08 02:05:38;;;;;;;5.63;5.10;;;8.60;1.00;;;;;;5118394;27;20532;-79
2023/01/08 02:08:12;;;;;;;11.63;5.53;;;8.60;1.00;;;;;;5110949;27;20451;-79
2023/01/08 02:10:47;;;;;;;5.03;4.63;;;8.60;1.00;;;;;;5119725;27;20443;-79
2023/01/08 02:13:22;;;;;;;6.23;5.27;;;8.60;1.00;;;;;;5113702;27;20494;-79
2023/01/08 02:15:56;;;;;;;5.10;4.50;;;8.70;1.00;;;;;;5117761;27;20591;-79
2023/01/08 02:18:29;;;;;;;5.23;4.73;;;8.60;1.00;;;;;;5118455;27;20454;-79
2023/01/08 02:21:04;;;;;;;5.50;5.00;;;8.70;1.00;;;;;;5114584;27;20499;-78
2023/01/08 02:23:42;;;;;;;5.27;4.77;;;8.70;1.00;;;;;;5112634;27;20883;-77
2023/01/08 02:26:20;;;;;;;6.43;5.10;;;8.70;99.90;;;;;;5116676;27;21111;-79
2023/01/08 02:28:52;;;;;;;4.87;4.30;;;8.70;1.00;;;;;;5114194;27;20538;-79
2023/01/08 02:31:23;;;;;;;5.40;4.90;;;8.70;99.90;;;;;;5107655;27;20907;-80
2023/01/08 02:33:52;;;;;;;5.37;4.87;;;8.70;99.90;;;;;;5111341;27;20494;-78
2023/01/08 02:36:34;;;;;;;5.30;4.87;;;8.70;99.90;;;;;;5110994;27;20481;-78
2023/01/08 02:39:21;;;;;;;4.73;4.33;;;8.80;1.00;;;;;;5120239;27;20945;-77
2023/01/08 02:42:03;;;;;;;5.00;4.43;;;8.70;99.90;;;;;;5117756;27;20497;-77
2023/01/08 02:44:44;;;;;;;4.47;4.17;;;8.80;99.90;;;;;;5115790;27;20495;-79
2023/01/08 02:47:23;;;;;;;5.37;4.70;;;8.80;99.90;;;;;;5110901;27;20537;-77
2023/01/08 02:50:00;;;;;;;4.20;3.90;;;8.70;99.90;;;;;;5112968;27;20473;-78
2023/01/08 02:52:31;;;;;;;4.77;4.33;;;8.70;99.90;;;;;;5114605;27;20462;-79
2023/01/08 02:55:02;;;;;;;5.07;4.50;;;8.80;99.90;;;;;;5115495;27;20473;-79
2023/01/08 02:57:33;;;;;;;4.40;4.10;;;8.80;99.90;;;;;;5113125;27;20455;-79
2023/01/08 03:00:01;;;;;;;4.80;4.40;;;8.70;99.90;;;;;;5114841;27;20521;-79
2023/01/08 03:02:33;;;;;;;5.23;4.73;;;8.80;99.90;;;;;;5112619;27;20460;-78
2023/01/08 03:05:06;;;;;;;5.17;4.77;;;8.80;1.00;;;;;;5116438;27;20481;-79
2023/01/08 03:07:35;;;;;;;5.60;4.60;;;8.70;1.00;;;;;;5111327;27;20459;-78
2023/01/08 03:10:03;;;;;;;5.03;4.53;;;8.70;1.00;;;;;;5109566;27;20456;-79
2023/01/08 03:12:45;;;;;;;4.60;4.20;;;8.70;1.00;;;;;;5113757;27;20542;-78
2023/01/08 03:15:21;;;;;;;5.90;5.03;;;8.70;1.00;;;;;;5112179;27;20868;-80
2023/01/08 03:17:52;;;;;;;4.87;4.50;;;8.80;1.00;;;;;;5114904;27;20517;-80
2023/01/08 03:20:23;;;;;;;4.63;4.23;;;8.80;99.90;;;;;;5123257;27;21134;-79
2023/01/08 03:22:55;;;;;;;5.37;4.80;;;8.80;99.90;;;;;;5117218;27;20537;-78
2023/01/08 03:25:26;;;;;;;5.80;4.33;;;8.80;99.90;;;;;;5115513;27;20496;-80
2023/01/08 03:28:00;;;;;;;4.87;4.37;;;8.80;99.90;;;;;;5118924;27;20464;-80
2023/01/08 03:30:30;;;;;;;4.90;4.50;;;8.80;99.90;;;;;;5122947;27;20472;-80
2023/01/08 03:33:00;;;;;;;7.67;6.50;;;8.80;99.90;;;;;;5119799;27;20485;-80
2023/01/08 03:35:29;;;;;;;6.83;5.83;;;8.70;99.90;;;;;;5115302;27;20479;-81
2023/01/08 03:38:03;;;;;;;7.77;6.27;;;8.60;1.00;;;;;;5118949;27;20464;-81
2023/01/08 03:40:36;;;;;;;5.37;4.87;;;8.60;1.00;;;;;;5121497;27;20443;-80
2023/01/08 03:43:06;;;;;;;5.40;4.90;;;8.50;1.00;;;;;;5109755;27;20462;-80
2023/01/08 03:45:38;;;;;;;5.50;5.07;;;8.50;1.00;;;;;;5112254;27;20523;-79
2023/01/08 03:48:08;;;;;;;5.53;5.03;;;8.60;1.00;;;;;;5110912;27;20460;-79
2023/01/08 03:50:36;;;;;;;6.27;5.67;;;8.60;1.00;;;;;;5111908;27;20543;-80
2023/01/08 03:53:05;;;;;;;4.77;4.37;;;8.60;1.00;;;;;;5113451;27;20528;-80
2023/01/08 03:55:33;;;;;;;5.70;5.20;;;8.60;1.00;;;;;;5117142;27;20876;-80
2023/01/08 03:58:01;;;;;;;4.27;3.97;;;8.60;1.00;;;;;;5105792;27;20497;-81
2023/01/08 04:00:30;;;;;;;5.13;4.73;;;8.70;99.90;;;;;;5115265;27;20451;-80
2023/01/08 04:02:59;;;;;;;4.77;4.37;;;8.70;99.90;;;;;;5116709;27;21110;-81
2023/01/08 04:05:27;;;;;;;4.10;3.77;;;8.80;99.90;;;;;;5110682;27;20467;-80
2023/01/08 04:07:56;;;;;;;5.23;4.40;;;8.80;99.90;;;;;;5113722;27;20979;-79
2023/01/08 04:10:24;;;;;;;6.83;4.43;;;8.80;99.90;;;;;;5114826;27;20501;-80
2023/01/08 04:12:53;;;;;;;4.60;4.20;;;8.80;99.90;;;;;;5111197;27;20494;-80
2023/01/08 04:15:21;;;;;;;4.40;4.00;;;8.80;99.90;;;;;;5107454;27;20474;-80
2023/01/08 04:17:50;;;;;;;6.40;5.40;;;8.80;99.90;;;;;;5113970;27;20508;-79
2023/01/08 04:20:19;;;;;;;4.73;4.40;;;8.80;99.90;;;;;;5110614;27;20447;-80
2023/01/08 04:22:47;;;;;;;4.67;4.33;;;8.80;99.90;;;;;;5111190;27;20584;-80
2023/01/08 04:25:15;;;;;;;5.23;4.83;;;8.70;99.90;;;;;;5111523;27;20480;-80
2023/01/08 04:27:43;;;;;;;5.37;4.87;;;8.60;1.00;;;;;;5118788;27;20894;-80
2023/01/08 04:30:12;;;;;;;5.63;5.10;;;8.60;1.00;;;;;;5092984;27;20966;-79
2023/01/08 04:32:40;;;;;;;5.17;4.77;;;8.60;1.00;;;;;;5114706;27;20441;-80
2023/01/08 04:35:10;;;;;;;4.40;4.10;;;8.70;99.90;;;;;;5110815;27;21010;-80
2023/01/08 04:37:38;;;;;;;4.17;3.80;;;8.60;99.90;;;;;;5113553;27;20447;-80
2023/01/08 04:40:07;;;;;;;5.60;4.10;;;8.80;99.90;;;;;;5114068;27;20482;-80
2023/01/08 04:42:35;;;;;;;3.60;3.30;;;8.70;99.90;;;;;;5114398;27;20477;-79
2023/01/08 04:45:04;;;;;;;3.50;3.13;;;8.80;99.90;;;;;;5107619;27;21068;-80
2023/01/08 04:47:32;;;;;;;3.10;2.90;;;8.80;99.90;;;;;;5109104;27;20453;-80
2023/01/08 04:50:00;;;;;;;3.40;3.10;;;8.90;99.90;;;;;;5115750;27;20455;-81
2023/01/08 04:52:30;;;;;;;4.60;3.23;;;8.90;99.90;;;;;;5111591;27;20531;-80
2023/01/08 04:54:58;;;;;;;3.03;2.83;;;8.90;99.90;;;;;;5114027;27;20475;-78
2023/01/08 04:57:26;;;;;;;2.90;2.70;;;9.00;99.90;;;;;;5113572;27;20442;-79
2023/01/08 04:59:54;;;;;;;2.77;2.57;;;8.90;99.90;;;;;;5107047;27;20848;-79
2023/01/08 05:02:22;;;;;;;2.20;2.00;;;9.00;99.90;;;;;;5115542;27;21113;-79
2023/01/08 05:04:50;;;;;;;3.20;2.90;;;8.90;1.00;;;;;;5110014;27;20454;-79
2023/01/08 05:07:18;;;;;;;2.40;2.30;;;8.90;1.00;;;;;;5107799;27;20460;-79
2023/01/08 05:09:48;;;;;;;2.20;2.00;;;8.90;81.90;;;;;;5117135;27;20481;-79
2023/01/08 05:12:16;;;;;;;2.07;1.77;;;9.00;99.90;;;;;;5111165;27;20451;-80
2023/01/08 05:14:44;;;;;;;1.87;1.77;;;9.00;99.90;;;;;;5113391;28;20509;-79
2023/01/08 05:17:13;;;;;;;1.90;1.70;;;9.00;99.90;;;;;;5111668;28;20466;-78
2023/01/08 05:19:41;;;;;;;2.00;1.90;;;9.00;1.00;;;;;;5111904;28;20463;-79
2023/01/08 05:22:09;;;;;;;1.90;1.80;;;9.00;1.00;;;;;;5106511;28;20469;-80
2023/01/08 05:24:37;;;;;;;3.43;1.67;;;9.00;99.90;;;;;;5112006;27;20496;-79
2023/01/08 05:27:07;;;;;;;1.70;1.60;;;9.10;99.90;;;;;;5114015;27;21026;-79
2023/01/08 05:29:35;;;;;;;1.93;1.83;;;9.00;1.00;;;;;;5111385;27;20454;-79
2023/01/08 05:32:03;;;;;;;1.80;1.70;;;9.00;1.00;;;;;;5097802;27;20535;-79
2023/01/08 05:34:31;;;;;;;2.30;2.20;;;9.00;1.00;;;;;;5117238;27;20451;-79
2023/01/08 05:36:59;;;;;;;2.20;2.00;;;9.10;6.70;;;;;;5113229;27;20502;-78
2023/01/08 05:39:27;;;;;;;1.90;1.80;;;9.00;1.00;;;;;;5114868;27;20481;-81
2023/01/08 05:41:55;;;;;;;1.90;1.80;;;9.10;85.90;;;;;;5112502;27;20475;-80
2023/01/08 05:44:25;;;;;;;2.03;1.93;;;9.10;46.70;;;;;;5114780;27;20828;-79
2023/01/08 05:46:53;;;;;;;2.40;1.70;;;9.10;7.60;;;;;;5118069;27;20890;-80
2023/01/08 05:49:22;;;;;;;1.60;1.50;;;9.00;1.00;;;;;;5085948;27;20457;-79
2023/01/08 05:51:51;;;;;;;2.30;1.83;;;9.00;99.90;;;;;;5119890;27;20477;-79
2023/01/08 05:54:19;;;;;;;1.90;1.80;;;9.00;99.90;;;;;;5124548;27;20498;-81
2023/01/08 05:56:47;;;;;;;1.50;1.40;;;8.90;32.40;;;;;;5123972;27;20535;-79
2023/01/08 05:59:15;;;;;;;1.60;1.50;;;8.90;47.80;;;;;;5115240;27;20463;-78
2023/01/08 06:01:44;;;;;;;1.60;1.50;;;9.00;99.90;;;;;;5117212;27;20459;-78
2023/01/08 06:04:12;;;;;;;1.60;1.50;;;9.10;1.00;;;;;;5120235;27;20483;-80
2023/01/08 06:06:41;;;;;;;1.47;1.37;;;9.00;1.00;;;;;;5115573;27;20528;-80
2023/01/08 06:09:09;;;;;;;1.77;1.67;;;9.10;99.90;;;;;;5118219;27;20448;-79
2023/01/08 06:11:37;;;;;;;1.90;1.70;;;9.10;1.00;;;;;;5115192;27;20447;-80
2023/01/08 06:14:05;;;;;;;1.70;1.60;;;9.10;1.00;;;;;;5114307;27;20459;-78
2023/01/08 06:16:34;;;;;;;1.97;1.70;;;9.10;99.90;;;;;;5119295;27;20973;-80
2023/01/08 06:19:03;;;;;;;1.77;1.67;;;9.10;99.90;;;;;;5114933;27;20451;-84
2023/01/08 06:21:31;;;;;;;1.50;1.40;;;9.10;99.90;;;;;;5116055;27;20581;-79
2023/01/08 06:23:59;;;;;;;1.70;1.60;;;9.20;99.90;;;;;;5099527;27;20481;-80
2023/01/08 06:26:27;;;;;;;1.40;1.40;;;9.10;1.00;;;;;;5115719;27;20472;-81
2023/01/08 06:28:55;;;;;;;1.40;1.40;;;9.20;1.00;;;;;;5115898;27;20457;-79
2023/01/08 06:31:23;;;;;;;1.57;1.47;;;9.30;1.00;;;;;;5106607;27;20545;-79
2023/01/08 06:33:52;;;;;;;1.20;1.20;;;9.20;1.00;;;;;;5112468;27;20451;-80
2023/01/08 06:36:21;;;;;;;1.30;1.30;;;9.20;1.00;;;;;;5112141;27;20464;-79
2023/01/08 06:38:49;;;;;;;1.57;1.50;;;9.20;1.00;;;;;;5114213;27;21309;-79
2023/01/08 06:41:17;;;;;;;1.70;1.60;;;9.20;1.00;;;;;;5115094;27;20541;-79
2023/01/08 06:43:46;;;;;;;1.73;1.50;;;9.20;99.90;;;;;;5109314;27;20596;-78
2023/01/08 06:46:15;;;;;;;1.80;1.70;;;9.10;1.00;;;;;;5116158;27;20522;-79
2023/01/08 06:48:43;;;;;;;1.70;1.60;;;9.20;99.90;;;;;;5111193;27;20447;-78
2023/01/08 06:51:11;;;;;;;1.87;1.77;;;9.10;1.00;;;;;;5115259;27;20494;-79
2023/01/08 06:53:40;;;;;;;1.50;1.50;;;9.00;1.00;;;;;;5116564;27;20453;-79
2023/01/08 06:56:09;;;;;;;1.73;1.63;;;9.00;1.00;;;;;;5117157;27;20556;-80
2023/01/08 06:58:38;;;;;;;1.63;1.53;;;9.10;99.90;;;;;;5114837;27;20524;-80
2023/01/08 07:01:07;;;;;;;1.43;1.37;;;8.90;99.90;;;;;;5106599;27;20521;-78
2023/01/08 07:03:35;;;;;;;1.63;1.53;;;9.00;15.40;;;;;;5114030;27;21221;-80
2023/01/08 07:06:03;;;;;;;1.60;1.50;;;9.00;99.90;;;;;;5113936;27;20517;-78
2023/01/08 07:08:31;;;;;;;2.17;2.07;;;8.90;99.90;;;;;;5113435;27;20451;-79
2023/01/08 07:11:03;;;;;;;2.40;2.20;;;8.90;74.10;;;;;;5113399;27;20461;-79
2023/01/08 07:13:31;;;;;;;1.90;1.80;;;9.00;99.90;;;;;;5112563;27;21037;-80
2023/01/08 07:16:05;;;;;;;1.77;1.67;;;9.00;39.60;;;;;;5114771;27;20495;-79
2023/01/08 07:18:35;;;;;;;1.77;1.67;;;8.90;40.20;;;;;;5112430;27;20548;-81
2023/01/08 07:21:03;;;;;;;2.03;1.93;;;8.90;1.00;;;;;;5111026;27;20812;-80
2023/01/08 07:23:31;;;;;;;1.70;1.60;;;8.90;99.90;;;;;;5111101;27;20515;-79
2023/01/08 07:26:01;;;;;;;1.93;1.83;;;8.90;1.00;;;;;;5114464;27;20771;-81
2023/01/08 07:28:31;;;;;;;1.90;1.80;;;8.90;1.00;;;;;;5110476;27;20471;-79
2023/01/08 07:31:03;;;;;;;1.97;1.83;;;8.70;99.90;;;;;;5096880;27;20921;-79
2023/01/08 07:33:31;;;;;;;1.73;1.63;;;8.90;1.00;;;;;;5110797;27;20442;-80
2023/01/08 07:35:59;;;;;;;2.40;1.63;;;8.80;1.00;;;;;;5116340;27;20486;-78
2023/01/08 07:38:27;;;;;;;1.80;1.70;;;8.70;14.50;;;;;;5113321;27;20911;-80
2023/01/08 07:40:57;;;;;;;1.70;1.60;;;8.70;6.90;;;;;;5112143;27;20463;-79
2023/01/08 07:43:25;;;;;;;1.90;1.70;;;8.60;99.90;;;;;;5109614;27;20551;-79
2023/01/08 07:45:55;;;;;;;1.80;1.70;;;8.80;99.90;;;;;;5106562;27;20490;-80
2023/01/08 07:48:23;;;;;;;1.60;1.50;;;8.80;99.90;;;;;;5108830;27;20657;-79
2023/01/08 07:50:51;;;;;;;1.60;1.60;;;8.80;99.90;;;;;;5110305;27;20452;-80
2023/01/08 07:53:19;;;;;;;1.53;1.53;;;8.80;99.90;;;;;;5107549;27;21316;-80
2023/01/08 07:55:47;;;;;;;1.90;1.80;;;8.70;99.90;;;;;;5109461;27;20540;-80
2023/01/08 07:58:16;;;;;;;1.70;1.60;;;8.80;99.90;;;;;;5111218;27;20517;-80
2023/01/08 08:00:44;;;;;;;1.57;1.57;;;8.90;99.90;;;;;;5107758;27;20458;-79
2023/01/08 08:03:13;;;;;;;3.27;1.80;;;8.80;99.90;;;;;;5116931;27;20482;-80
2023/01/08 08:05:41;;;;;;;1.90;1.80;;;8.80;1.00;;;;;;5111096;27;20557;-77
2023/01/08 08:08:11;;;;;;;1.57;1.57;;;8.80;99.90;;;;;;5113150;27;20594;-78
2023/01/08 08:10:40;;;;;;;1.60;1.50;;;8.70;99.90;;;;;;5092231;27;20457;-78
2023/01/08 08:13:09;;;;;;;1.88;1.70;;;8.70;99.90;;;;;;5110898;27;20433;-78
2023/01/08 08:15:39;;;;;;;1.40;1.40;;;8.70;99.90;;;;;;5111343;27;20457;-77
2023/01/08 08:18:08;;;;;;;1.60;1.50;;;8.70;99.90;;;;;;5103883;27;20452;-78
2023/01/08 08:20:38;;;;;;;1.60;1.50;;;8.80;99.90;;;;;;5109779;27;20486;-78
2023/01/08 08:23:08;;;;;;;1.57;1.50;;;8.80;99.90;;;;;;5105837;27;20459;-77
2023/01/08 08:25:36;;;;;;;2.10;1.90;;;8.70;99.90;;;;;;5111933;27;20572;-77
2023/01/08 08:28:05;;;;;;;1.73;1.63;;;8.70;99.90;;;;;;5090239;28;20475;-76
2023/01/08 08:30:34;;;;;;;2.30;2.20;;;8.80;99.90;;;;;;5110907;27;20925;-76
2023/01/08 08:33:05;;;;;;;1.40;1.40;;;8.70;99.90;;;;;;5105664;27;20463;-77
2023/01/08 08:35:34;;;;;;;2.23;2.10;;;8.60;99.90;;;;;;5110304;27;20580;-76
2023/01/08 08:38:04;;;;;;;3.03;1.67;;;8.70;99.90;;;;;;5108981;27;20457;-76
2023/01/08 08:40:32;;;;;;;2.07;1.97;;;8.70;99.90;;;;;;5115631;27;20481;-76
2023/01/08 08:43:02;;;;;;;1.80;1.70;;;8.70;99.90;;;;;;5108930;27;20458;-77
2023/01/08 08:45:30;;;;;;;1.63;1.60;;;8.70;99.90;;;;;;5110717;27;20488;-77
2023/01/08 08:47:58;;;;;;;1.80;1.70;;;8.70;99.90;;;;;;5111038;27;20456;-77
2023/01/08 08:50:27;;;;;;;2.03;1.60;;;8.60;99.90;;;;;;5114269;27;20458;-78
2023/01/08 08:52:59;;;;;;;1.50;1.50;;;8.70;99.90;;;;;;5105764;27;21018;-77
2023/01/08 08:55:28;;;;;;;1.50;1.50;;;8.70;99.90;;;;;;5114647;27;20467;-78
2023/01/08 08:58:04;;;;;;;1.77;1.70;;;8.80;99.90;;;;;;5106244;27;20468;-79
2023/01/08 09:00:32;;;;;;;1.70;1.60;;;8.80;99.90;;;;;;5109745;27;20446;-78
2023/01/08 09:03:00;;;;;;;4.20;1.80;;;8.70;99.90;;;;;;5113440;27;20446;-76
2023/01/08 09:05:29;;;;;;;2.07;1.97;;;8.70;99.90;;;;;;5106975;27;20491;-77
2023/01/08 09:07:57;;;;;;;1.80;1.70;;;8.60;99.90;;;;;;5104420;27;20817;-78
2023/01/08 09:10:25;;;;;;;1.90;1.80;;;8.80;99.90;;;;;;5109428;27;20971;-77
2023/01/08 09:12:55;;;;;;;1.97;1.87;;;8.70;99.90;;;;;;5109264;27;20463;-78
2023/01/08 09:15:23;;;;;;;1.90;1.80;;;8.70;99.90;;;;;;5107914;28;20502;-77
2023/01/08 09:17:55;;;;;;;3.17;1.83;;;8.60;99.90;;;;;;5105603;28;21171;-77
2023/01/08 09:20:23;;;;;;;1.80;1.70;;;8.60;99.90;;;;;;5112282;28;20478;-78
2023/01/08 09:22:52;;;;;;;1.93;1.83;;;8.70;99.90;;;;;;5098220;28;20201;-76
2023/01/08 09:25:20;;;;;;;1.60;1.60;;;8.70;99.90;;;;;;5099345;28;20492;-77
2023/01/08 09:27:48;;;;;;;1.70;1.60;;;8.80;99.90;;;;;;5086709;28;20549;-77
2023/01/08 09:30:17;;;;;;;2.03;1.90;;;8.80;99.90;;;;;;5104747;28;20504;-78
2023/01/08 09:32:46;;;;;;;1.80;1.70;;;8.80;99.90;;;;;;5099809;28;20978;-76
2023/01/08 09:35:14;;;;;;;1.53;1.50;;;8.80;99.90;;;;;;5111203;28;20538;-75
2023/01/08 09:37:42;;;;;;;1.83;1.77;;;8.80;1.00;;;;;;5111117;28;20454;-78
2023/01/08 09:40:14;;;;;;;1.67;1.57;;;8.80;78.40;;;;;;5103939;28;20462;-77
2023/01/08 09:42:42;;;;;;;1.87;1.77;;;8.90;27.90;;;;;;5112924;28;20462;-77
2023/01/08 09:45:22;;;;;;;1.80;1.70;;;8.80;99.90;;;;;;5112401;28;20856;-76
2023/01/08 09:47:53;;;;;;;2.00;1.70;;;8.70;23.50;;;;;;5114431;28;20460;-77
2023/01/08 09:50:23;;;;;;;2.03;1.93;;;8.80;1.00;;;;;;5116795;28;21041;-78
2023/01/08 09:52:52;;;;;;;1.67;1.63;;;8.90;99.90;;;;;;5117042;28;20527;-77
2023/01/08 09:55:21;;;;;;;2.07;1.97;;;8.80;99.90;;;;;;5117562;28;20462;-78
2023/01/08 09:57:49;;;;;;;1.67;1.60;;;8.80;99.90;;;;;;5113185;28;21039;-77
2023/01/08 10:00:22;;;;;;;2.10;2.00;;;8.80;99.90;;;;;;5110199;28;20513;-77
2023/01/08 10:02:53;;;;;;;1.90;1.80;;;8.80;1.00;;;;;;5115910;28;20939;-76
2023/01/08 10:05:21;;;;;;;1.77;1.67;;;8.90;1.00;;;;;;5114283;28;20497;-77
2023/01/08 10:07:50;;;;;;;1.80;1.70;;;8.90;1.00;;;;;;5114451;28;20813;-78
2023/01/08 10:10:20;;;;;;;1.90;1.50;;;8.90;92.50;;;;;;5119412;27;20575;-78
2023/01/08 10:12:49;;;;;;;1.80;1.70;;;9.00;99.60;;;;;;5118084;27;20443;-75
2023/01/08 10:15:19;;;;;;;1.90;1.80;;;9.10;1.00;;;;;;5117941;27;20472;-77
2023/01/08 10:17:53;;;;;;;1.87;1.50;;;9.10;99.90;;;;;;5118418;27;20444;-77
2023/01/08 10:20:24;;;;;;;1.70;1.60;;;9.10;99.90;;;;;;5117166;27;20544;-76
2023/01/08 10:22:54;;;;;;;2.00;1.90;;;9.10;99.90;;;;;;5117973;27;20442;-77
2023/01/08 10:25:25;;;;;;;2.30;1.53;;;9.10;1.00;;;;;;5100243;27;20480;-77
2023/01/08 10:27:57;;;;;;;1.73;1.60;;;9.10;99.90;;;;;;5118323;27;20474;-76
2023/01/08 10:30:36;;;;;;;1.83;1.73;;;9.10;1.00;;;;;;5111898;27;20534;-77
2023/01/08 10:33:10;;;;;;;1.70;1.60;;;9.10;99.90;;;;;;5101811;27;20445;-76
2023/01/08 10:35:41;;;;;;;3.40;3.20;;;9.10;99.90;;;;;;5098777;27;20464;-76
2023/01/08 10:38:25;;;;;;;1.80;1.70;;;9.10;99.90;;;;;;5119098;27;20955;-76
2023/01/08 10:40:53;;;;;;;1.40;1.40;;;9.10;1.00;;;;;;5104300;27;20451;-77
2023/01/08 10:43:27;;;;;;;1.60;1.50;;;9.10;1.00;;;;;;5118132;27;20466;-76
2023/01/08 10:45:59;;;;;;;1.77;1.67;;;9.10;99.90;;;;;;5118382;27;20470;-77
2023/01/08 10:48:33;;;;;;;1.40;1.40;;;9.20;99.90;;;;;;5114743;27;21014;-78
2023/01/08 10:51:07;;;;;;;1.90;1.80;;;9.20;99.90;;;;;;5113671;27;21133;-76
2023/01/08 10:53:35;;;;;;;1.50;1.40;;;9.30;99.90;;;;;;5112759;27;20470;-77
2023/01/08 10:56:05;;;;;;;1.90;1.60;;;9.30;99.90;;;;;;5114674;27;20810;-77
2023/01/08 10:58:42;;;;;;;1.60;1.50;;;9.30;99.90;;;;;;5116381;27;20461;-77
2023/01/08 11:01:12;;;;;;;1.57;1.50;;;9.30;99.90;;;;;;5113848;27;20455;-76
2023/01/08 11:03:41;;;;;;;1.53;1.50;;;9.20;99.90;;;;;;5103844;27;20458;-77
2023/01/08 11:06:21;;;;;;;1.40;1.40;;;9.30;99.90;;;;;;5116419;27;20485;-76
2023/01/08 11:08:51;;;;;;;1.60;1.50;;;9.30;1.00;;;;;;5117663;27;20443;-74
2023/01/08 11:11:20;;;;;;;1.33;1.33;;;9.40;1.00;;;;;;5100202;27;20457;-75
2023/01/08 11:13:57;;;;;;;1.43;1.43;;;9.30;1.00;;;;;;5113835;27;20462;-76
2023/01/08 11:16:33;;;;;;;1.47;1.40;;;9.30;99.90;;;;;;5116003;27;20499;-75
2023/01/08 11:19:02;;;;;;;1.70;1.60;;;9.40;99.90;;;;;;5116420;27;20475;-75
2023/01/08 11:21:34;;;;;;;1.50;1.40;;;9.50;99.90;;;;;;5109627;27;20452;-73
2023/01/08 11:24:12;;;;;;;1.80;1.70;;;9.50;99.90;;;;;;5117737;27;21105;-76
2023/01/08 11:26:43;;;;;;;1.63;1.57;;;9.50;1.00;;;;;;5116283;27;21035;-76
2023/01/08 11:29:16;;;;;;;2.00;1.73;;;9.50;99.90;;;;;;5113979;27;20438;-76
2023/01/08 11:31:52;;;;;;;1.60;1.50;;;9.60;99.90;;;;;;5113894;27;20445;-76
2023/01/08 11:34:28;;;;;;;1.93;1.60;;;9.60;99.90;;;;;;5115358;27;20971;-77
2023/01/08 11:37:05;;;;;;;1.50;1.40;;;9.60;99.90;;;;;;5118456;27;20474;-75
2023/01/08 11:39:37;;;;;;;1.60;1.50;;;9.70;99.90;;;;;;5111337;27;20448;-76
2023/01/08 11:42:27;;;;;;;1.80;1.70;;;9.70;1.00;;;;;;5110907;27;20471;-76
2023/01/08 11:45:16;;;;;;;1.60;1.50;;;9.70;1.00;;;;;;5107819;27;20462;-75
2023/01/08 11:48:08;;;;;;;2.83;1.50;;;9.70;38.60;;;;;;5112544;27;20502;-77
2023/01/08 11:50:46;;;;;;;1.63;1.53;;;9.60;1.00;;;;;;5112968;27;20470;-77
2023/01/08 11:53:24;;;;;;;1.40;1.40;;;9.70;1.00;;;;;;5116182;27;20450;-74
2023/01/08 11:56:02;;;;;;;1.43;1.43;;;9.70;99.90;;;;;;5111173;27;20479;-74
2023/01/08 11:58:44;;;;;;;1.40;1.30;;;9.60;1.00;;;;;;5102444;27;20908;-76
2023/01/08 12:01:36;;;;;;;2.17;1.97;;;9.60;99.90;;;;;;5101738;27;20464;-76
2023/01/08 12:04:23;;;;;;;1.70;1.60;;;9.70;1.00;;;;;;5111763;27;20445;-77
2023/01/08 12:07:01;;;;;;;1.60;1.50;;;9.60;99.90;;;;;;5099762;27;20480;-78
2023/01/08 12:09:40;;;;;;;1.43;1.33;;;9.60;99.90;;;;;;5106600;27;21438;-78
2023/01/08 12:12:18;;;;;;;2.17;2.07;;;9.70;99.90;;;;;;5108547;27;20550;-77
2023/01/08 12:14:56;;;;;;;1.40;1.30;;;9.70;45.60;;;;;;5107391;27;20455;-76
2023/01/08 12:17:54;;;;;;;1.30;1.30;;;9.70;1.00;;;;;;5107962;27;20437;-77
2023/01/08 12:20:32;;;;;;;1.50;1.40;;;9.80;66.90;;;;;;5068194;27;21249;-77
2023/01/08 12:23:11;;;;;;;1.50;1.40;;;9.80;1.00;;;;;;5108877;27;20908;-76
2023/01/08 12:26:01;;;;;;;1.37;1.30;;;9.80;99.90;;;;;;5110732;27;20487;-75
2023/01/08 12:29:08;;;;;;;1.60;1.50;;;9.70;1.00;;;;;;5101628;27;20461;-76
2023/01/08 12:31:56;;;;;;;1.33;1.33;;;9.70;1.00;;;;;;5057609;27;20471;-77
2023/01/08 12:34:41;;;;;;;1.30;1.30;;;9.80;1.00;;;;;;5093001;27;20534;-77
2023/01/08 12:37:15;;;;;;;1.47;1.40;;;9.80;99.90;;;;;;5115620;27;20468;-75
2023/01/08 12:39:51;;;;;;;1.47;1.37;;;9.80;1.00;;;;;;5112372;27;20517;-77
2023/01/08 12:42:27;;;;;;;1.80;1.70;;;9.70;99.90;;;;;;5114089;27;20518;-76
2023/01/08 12:44:57;;;;;;;2.10;1.47;;;9.80;99.90;;;;;;5112647;27;20451;-79
2023/01/08 12:47:29;;;;;;;1.20;1.20;;;9.90;1.00;;;;;;5101327;27;20467;-77
2023/01/08 12:50:07;;;;;;;1.40;1.30;;;9.90;1.00;;;;;;5117294;27;20440;-76
2023/01/08 12:52:45;;;;;;;1.57;1.30;;;9.90;99.90;;;;;;5103323;27;20472;-76
2023/01/08 12:55:26;;;;;;;1.30;1.30;;;9.90;99.90;;;;;;5114076;27;20477;-76
2023/01/08 12:58:05;;;;;;;1.40;1.30;;;9.80;8.80;;;;;;5112663;27;20468;-76
2023/01/08 13:00:39;;;;;;;1.70;1.60;;;10.00;1.00;;;;;;5111879;27;20498;-77
2023/01/08 13:03:14;;;;;;;1.90;1.53;;;10.00;99.90;;;;;;5113141;27;20482;-77
2023/01/08 13:05:43;;;;;;;1.20;1.20;;;10.00;1.00;;;;;;5111452;27;21074;-77
2023/01/08 13:08:32;;;;;;;1.20;1.20;;;9.90;1.00;;;;;;5106875;27;20561;-78
2023/01/08 13:11:01;;;;;;;1.40;1.30;;;9.90;1.00;;;;;;5112159;27;20448;-76
2023/01/08 13:13:33;;;;;;;1.33;1.23;;;9.90;99.90;;;;;;5091786;28;20513;-77
2023/01/08 13:16:09;;;;;;;1.37;1.27;;;10.00;99.90;;;;;;5107595;28;20469;-76
2023/01/08 13:18:38;;;;;;;1.23;1.23;;;10.00;99.90;;;;;;5091579;28;20463;-76
2023/01/08 13:21:09;;;;;;;1.23;1.23;;;10.00;99.90;;;;;;5104238;28;20445;-77